sensor_id;sensor_type;location;lat;lon;timestamp;temperature;humidity
27779;DHT22;30234;48.090;11.464;2023-03-31T00:03:23;7.10;99.90
27779;DHT22;30234;48.090;11.464;2023-03-31T00:07:24;7.20;99.90
27779;DHT22;30234;48.090;11.464;2023-03-31T00:11:25;7.40;99.90
27779;DHT22;30234;48.090;11.464;2023-03-31T00:15:27;7.70;99.90
27779;DHT22;30234;48.090;11.464;2023-03-31T00:19:28;7.90;99.90
27779;DHT22;30234;48.090;11.464;2023-03-31T00:23:28;7.90;99.90
27779;DHT22;30234;48.090;11.464;2023-03-31T00:27:30;7.90;99.90
27779;DHT22;30234;48.090;11.464;2023-03-31T00:31:32;7.90;99.90
27779;DHT22;30234;48.090;11.464;2023-03-31T00:35:37;7.80;99.90
27779;DHT22;30234;48.090;11.464;2023-03-31T00:39:38;7.90;99.90
27779;DHT22;30234;48.090;11.464;2023-03-31T00:43:39;8.00;99.90
27779;DHT22;30234;48.090;11.464;2023-03-31T00:47:51;8.00;99.90
27779;DHT22;30234;48.090;11.464;2023-03-31T00:51:56;8.00;99.90
27779;DHT22;30234;48.090;11.464;2023-03-31T00:56:13;8.10;99.90
27779;DHT22;30234;48.090;11.464;2023-03-31T01:00:16;8.10;99.90
27779;DHT22;30234;48.090;11.464;2023-03-31T01:04:18;8.20;99.90
27779;DHT22;30234;48.090;11.464;2023-03-31T01:08:24;8.20;99.90
27779;DHT22;30234;48.090;11.464;2023-03-31T01:12:27;8.20;99.90
27779;DHT22;30234;48.090;11.464;2023-03-31T01:16:28;8.20;99.90
27779;DHT22;30234;48.090;11.464;2023-03-31T01:29:27;8.10;99.90
27779;DHT22;30234;48.090;11.464;2023-03-31T01:56:24;8.10;99.90
27779;DHT22;30234;48.090;11.464;2023-03-31T02:00:33;8.00;99.90
27779;DHT22;30234;48.090;11.464;2023-03-31T02:04:46;7.90;99.90
27779;DHT22;30234;48.090;11.464;2023-03-31T02:08:57;7.80;99.90
27779;DHT22;30234;48.090;11.464;2023-03-31T02:13:02;7.70;99.90
27779;DHT22;30234;48.090;11.464;2023-03-31T02:17:04;7.70;99.90
27779;DHT22;30234;48.090;11.464;2023-03-31T02:21:08;7.80;99.90
27779;DHT22;30234;48.090;11.464;2023-03-31T02:25:12;8.00;99.90
27779;DHT22;30234;48.090;11.464;2023-03-31T02:29:14;8.10;99.90
27779;DHT22;30234;48.090;11.464;2023-03-31T02:33:15;8.20;99.90
27779;DHT22;30234;48.090;11.464;2023-03-31T02:37:17;8.20;99.90
27779;DHT22;30234;48.090;11.464;2023-03-31T02:41:18;8.30;99.90
27779;DHT22;30234;48.090;11.464;2023-03-31T02:45:39;8.40;99.90
27779;DHT22;30234;48.090;11.464;2023-03-31T02:49:44;8.40;99.90
27779;DHT22;30234;48.090;11.464;2023-03-31T03:12:16;8.30;99.90
27779;DHT22;30234;48.090;11.464;2023-03-31T03:16:34;8.30;99.90
27779;DHT22;30234;48.090;11.464;2023-03-31T03:20:37;8.20;99.90
27779;DHT22;30234;48.090;11.464;2023-03-31T03:24:40;8.30;99.90
27779;DHT22;30234;48.090;11.464;2023-03-31T03:28:42;8.30;99.90
27779;DHT22;30234;48.090;11.464;2023-03-31T03:32:42;8.30;99.90
27779;DHT22;30234;48.090;11.464;2023-03-31T03:36:43;8.30;99.90
27779;DHT22;30234;48.090;11.464;2023-03-31T03:40:45;8.40;99.90
27779;DHT22;30234;48.090;11.464;2023-03-31T03:44:46;8.40;99.90
27779;DHT22;30234;48.090;11.464;2023-03-31T03:48:47;8.30;99.90
27779;DHT22;30234;48.090;11.464;2023-03-31T03:52:48;8.40;99.90
27779;DHT22;30234;48.090;11.464;2023-03-31T03:56:48;8.40;99.90
27779;DHT22;30234;48.090;11.464;2023-03-31T04:00:49;8.30;99.90
27779;DHT22;30234;48.090;11.464;2023-03-31T04:04:51;8.20;99.90
27779;DHT22;30234;48.090;11.464;2023-03-31T04:08:52;8.10;99.90
27779;DHT22;30234;48.090;11.464;2023-03-31T04:12:53;8.10;99.90
27779;DHT22;30234;48.090;11.464;2023-03-31T04:16:53;8.10;99.90
27779;DHT22;30234;48.090;11.464;2023-03-31T04:20:55;8.20;99.90
27779;DHT22;30234;48.090;11.464;2023-03-31T04:25:07;8.20;99.90
27779;DHT22;30234;48.090;11.464;2023-03-31T04:29:15;8.20;99.90
27779;DHT22;30234;48.090;11.464;2023-03-31T04:33:16;8.10;99.90
27779;DHT22;30234;48.090;11.464;2023-03-31T04:37:18;8.00;99.90
27779;DHT22;30234;48.090;11.464;2023-03-31T04:41:20;7.70;99.90
27779;DHT22;30234;48.090;11.464;2023-03-31T04:45:21;7.70;99.90
27779;DHT22;30234;48.090;11.464;2023-03-31T04:49:22;7.90;99.90
27779;DHT22;30234;48.090;11.464;2023-03-31T04:53:23;7.90;99.90
27779;DHT22;30234;48.090;11.464;2023-03-31T04:57:25;7.80;99.90
27779;DHT22;30234;48.090;11.464;2023-03-31T05:01:26;7.60;99.90
27779;DHT22;30234;48.090;11.464;2023-03-31T05:05:27;7.50;99.90
27779;DHT22;30234;48.090;11.464;2023-03-31T05:09:28;7.50;99.90
27779;DHT22;30234;48.090;11.464;2023-03-31T05:13:28;7.50;99.90
27779;DHT22;30234;48.090;11.464;2023-03-31T05:17:34;7.50;99.90
27779;DHT22;30234;48.090;11.464;2023-03-31T05:21:36;7.50;99.90
27779;DHT22;30234;48.090;11.464;2023-03-31T05:25:37;7.50;99.90
27779;DHT22;30234;48.090;11.464;2023-03-31T05:29:38;7.40;99.90
27779;DHT22;30234;48.090;11.464;2023-03-31T05:33:39;7.60;99.90
27779;DHT22;30234;48.090;11.464;2023-03-31T05:37:41;7.60;99.90
27779;DHT22;30234;48.090;11.464;2023-03-31T05:41:42;7.70;99.90
27779;DHT22;30234;48.090;11.464;2023-03-31T05:45:42;7.90;99.90
27779;DHT22;30234;48.090;11.464;2023-03-31T05:49:43;7.90;99.90
27779;DHT22;30234;48.090;11.464;2023-03-31T05:53:45;8.00;99.90
27779;DHT22;30234;48.090;11.464;2023-03-31T05:57:46;8.20;99.90
27779;DHT22;30234;48.090;11.464;2023-03-31T06:01:47;8.30;99.90
27779;DHT22;30234;48.090;11.464;2023-03-31T06:05:48;8.50;99.90
27779;DHT22;30234;48.090;11.464;2023-03-31T06:09:48;8.90;99.90
27779;DHT22;30234;48.090;11.464;2023-03-31T06:13:49;9.20;99.90
27779;DHT22;30234;48.090;11.464;2023-03-31T06:17:50;9.30;99.90
27779;DHT22;30234;48.090;11.464;2023-03-31T06:21:51;9.10;99.90
27779;DHT22;30234;48.090;11.464;2023-03-31T06:25:52;8.90;99.90
27779;DHT22;30234;48.090;11.464;2023-03-31T06:29:53;8.90;99.90
27779;DHT22;30234;48.090;11.464;2023-03-31T06:33:54;8.90;99.90
27779;DHT22;30234;48.090;11.464;2023-03-31T06:38:05;9.00;99.90
27779;DHT22;30234;48.090;11.464;2023-03-31T06:42:15;9.10;99.90
27779;DHT22;30234;48.090;11.464;2023-03-31T06:46:16;9.60;99.90
27779;DHT22;30234;48.090;11.464;2023-03-31T06:50:18;9.90;99.90
27779;DHT22;30234;48.090;11.464;2023-03-31T06:54:18;10.30;99.90
27779;DHT22;30234;48.090;11.464;2023-03-31T06:58:19;10.20;99.90
27779;DHT22;30234;48.090;11.464;2023-03-31T07:02:20;10.00;99.90
27779;DHT22;30234;48.090;11.464;2023-03-31T07:06:21;9.60;99.90
27779;DHT22;30234;48.090;11.464;2023-03-31T07:10:23;9.30;99.90
27779;DHT22;30234;48.090;11.464;2023-03-31T07:15:11;9.00;99.90
27779;DHT22;30234;48.090;11.464;2023-03-31T07:18:58;8.80;99.90
27779;DHT22;30234;48.090;11.464;2023-03-31T07:23:04;8.70;99.90
27779;DHT22;30234;48.090;11.464;2023-03-31T07:27:05;8.60;99.90
27779;DHT22;30234;48.090;11.464;2023-03-31T07:31:13;8.60;99.90
27779;DHT22;30234;48.090;11.464;2023-03-31T07:35:14;8.70;99.90
27779;DHT22;30234;48.090;11.464;2023-03-31T07:39:16;8.80;99.90
27779;DHT22;30234;48.090;11.464;2023-03-31T07:43:17;8.80;99.90
27779;DHT22;30234;48.090;11.464;2023-03-31T07:47:18;8.90;99.90
27779;DHT22;30234;48.090;11.464;2023-03-31T07:51:21;8.90;99.90
27779;DHT22;30234;48.090;11.464;2023-03-31T07:55:24;9.00;99.90
27779;DHT22;30234;48.090;11.464;2023-03-31T07:59:26;9.10;99.90
27779;DHT22;30234;48.090;11.464;2023-03-31T08:03:28;9.10;99.90
27779;DHT22;30234;48.090;11.464;2023-03-31T08:07:28;9.50;99.90
27779;DHT22;30234;48.090;11.464;2023-03-31T08:11:30;9.80;99.90
27779;DHT22;30234;48.090;11.464;2023-03-31T08:15:31;10.10;99.90
27779;DHT22;30234;48.090;11.464;2023-03-31T08:19:32;9.80;99.90
27779;DHT22;30234;48.090;11.464;2023-03-31T08:23:33;9.40;99.90
27779;DHT22;30234;48.090;11.464;2023-03-31T08:27:38;9.40;99.90
27779;DHT22;30234;48.090;11.464;2023-03-31T08:31:40;9.40;99.90
27779;DHT22;30234;48.090;11.464;2023-03-31T08:35:41;9.10;99.90
27779;DHT22;30234;48.090;11.464;2023-03-31T08:39:41;9.10;99.90
27779;DHT22;30234;48.090;11.464;2023-03-31T08:43:45;9.20;99.90
27779;DHT22;30234;48.090;11.464;2023-03-31T08:47:49;9.00;99.90
27779;DHT22;30234;48.090;11.464;2023-03-31T08:52:02;9.00;99.90
27779;DHT22;30234;48.090;11.464;2023-03-31T08:56:12;9.20;99.90
27779;DHT22;30234;48.090;11.464;2023-03-31T09:00:16;9.60;99.90
27779;DHT22;30234;48.090;11.464;2023-03-31T09:09:01;9.60;99.90
27779;DHT22;30234;48.090;11.464;2023-03-31T09:17:23;9.80;99.90
27779;DHT22;30234;48.090;11.464;2023-03-31T09:21:44;10.30;99.90
27779;DHT22;30234;48.090;11.464;2023-03-31T09:25:48;12.60;99.90
27779;DHT22;30234;48.090;11.464;2023-03-31T09:29:59;13.70;99.90
27779;DHT22;30234;48.090;11.464;2023-03-31T09:34:12;15.40;99.90
27779;DHT22;30234;48.090;11.464;2023-03-31T09:38:15;17.50;99.90
27779;DHT22;30234;48.090;11.464;2023-03-31T09:42:17;17.90;99.90
27779;DHT22;30234;48.090;11.464;2023-03-31T09:46:21;17.30;99.90
27779;DHT22;30234;48.090;11.464;2023-03-31T09:50:26;17.90;99.90
27779;DHT22;30234;48.090;11.464;2023-03-31T09:54:42;16.30;99.90
27779;DHT22;30234;48.090;11.464;2023-03-31T09:58:48;16.20;99.90
27779;DHT22;30234;48.090;11.464;2023-03-31T10:02:56;16.40;99.90
27779;DHT22;30234;48.090;11.464;2023-03-31T10:07:03;15.40;99.90
27779;DHT22;30234;48.090;11.464;2023-03-31T10:15:25;14.60;99.90
27779;DHT22;30234;48.090;11.464;2023-03-31T10:19:30;14.90;99.90
27779;DHT22;30234;48.090;11.464;2023-03-31T10:23:34;14.90;99.90
27779;DHT22;30234;48.090;11.464;2023-03-31T10:27:38;14.20;99.90
27779;DHT22;30234;48.090;11.464;2023-03-31T10:31:41;13.70;99.90
27779;DHT22;30234;48.090;11.464;2023-03-31T10:35:42;15.40;99.90
27779;DHT22;30234;48.090;11.464;2023-03-31T10:39:44;16.60;99.90
27779;DHT22;30234;48.090;11.464;2023-03-31T10:43:52;16.70;99.90
27779;DHT22;30234;48.090;11.464;2023-03-31T10:47:58;17.00;99.90
27779;DHT22;30234;48.090;11.464;2023-03-31T10:52:00;17.20;99.90
27779;DHT22;30234;48.090;11.464;2023-03-31T11:00:31;15.70;99.90
27779;DHT22;30234;48.090;11.464;2023-03-31T11:13:51;13.90;99.90
27779;DHT22;30234;48.090;11.464;2023-03-31T11:22:30;12.90;99.90
27779;DHT22;30234;48.090;11.464;2023-03-31T11:26:41;12.00;99.90
27779;DHT22;30234;48.090;11.464;2023-03-31T11:35:30;9.60;99.90
27779;DHT22;30234;48.090;11.464;2023-03-31T11:43:52;9.10;99.90
27779;DHT22;30234;48.090;11.464;2023-03-31T11:48:04;9.50;99.90
27779;DHT22;30234;48.090;11.464;2023-03-31T11:52:15;10.00;99.90
27779;DHT22;30234;48.090;11.464;2023-03-31T11:56:17;10.30;99.90
27779;DHT22;30234;48.090;11.464;2023-03-31T12:00:22;10.50;99.90
27779;DHT22;30234;48.090;11.464;2023-03-31T12:04:35;11.00;99.90
27779;DHT22;30234;48.090;11.464;2023-03-31T12:08:42;12.10;99.90
27779;DHT22;30234;48.090;11.464;2023-03-31T12:13:19;13.30;99.90
27779;DHT22;30234;48.090;11.464;2023-03-31T12:17:39;14.40;99.90
27779;DHT22;30234;48.090;11.464;2023-03-31T12:21:48;15.00;99.90
27779;DHT22;30234;48.090;11.464;2023-03-31T12:30:38;13.70;99.90
27779;DHT22;30234;48.090;11.464;2023-03-31T12:39:21;13.60;99.90
27779;DHT22;30234;48.090;11.464;2023-03-31T12:53:25;12.60;99.90
27779;DHT22;30234;48.090;11.464;2023-03-31T12:57:37;12.70;99.90
27779;DHT22;30234;48.090;11.464;2023-03-31T13:02:31;13.00;99.90
27779;DHT22;30234;48.090;11.464;2023-03-31T13:10:30;12.50;99.90
27779;DHT22;30234;48.090;11.464;2023-03-31T13:14:36;12.10;99.90
27779;DHT22;30234;48.090;11.464;2023-03-31T13:18:38;12.00;99.90
27779;DHT22;30234;48.090;11.464;2023-03-31T13:22:45;11.70;99.90
27779;DHT22;30234;48.090;11.464;2023-03-31T13:26:48;11.10;99.90
27779;DHT22;30234;48.090;11.464;2023-03-31T13:30:52;11.20;99.90
27779;DHT22;30234;48.090;11.464;2023-03-31T13:35:13;11.50;99.90
27779;DHT22;30234;48.090;11.464;2023-03-31T14:11:29;13.70;99.90
27779;DHT22;30234;48.090;11.464;2023-03-31T14:15:31;13.40;99.90
27779;DHT22;30234;48.090;11.464;2023-03-31T14:20:02;12.70;99.90
27779;DHT22;30234;48.090;11.464;2023-03-31T14:28:31;12.10;99.90
27779;DHT22;30234;48.090;11.464;2023-03-31T14:33:08;11.80;99.90
27779;DHT22;30234;48.090;11.464;2023-03-31T14:37:16;11.60;99.90
27779;DHT22;30234;48.090;11.464;2023-03-31T14:41:21;11.40;99.90
27779;DHT22;30234;48.090;11.464;2023-03-31T14:45:30;10.20;99.90
27779;DHT22;30234;48.090;11.464;2023-03-31T14:49:36;9.50;99.90
27779;DHT22;30234;48.090;11.464;2023-03-31T14:53:38;9.20;99.90
27779;DHT22;30234;48.090;11.464;2023-03-31T14:57:39;9.20;99.90
27779;DHT22;30234;48.090;11.464;2023-03-31T15:01:45;9.40;99.90
27779;DHT22;30234;48.090;11.464;2023-03-31T15:05:48;10.00;99.90
27779;DHT22;30234;48.090;11.464;2023-03-31T15:09:50;11.60;99.90
27779;DHT22;30234;48.090;11.464;2023-03-31T15:13:51;11.80;99.90
27779;DHT22;30234;48.090;11.464;2023-03-31T15:17:53;11.70;99.90
27779;DHT22;30234;48.090;11.464;2023-03-31T15:21:56;11.80;99.90
27779;DHT22;30234;48.090;11.464;2023-03-31T15:27:27;11.60;99.90
27779;DHT22;30234;48.090;11.464;2023-03-31T15:30:57;11.60;99.90
27779;DHT22;30234;48.090;11.464;2023-03-31T15:34:58;11.40;99.90
27779;DHT22;30234;48.090;11.464;2023-03-31T15:39:00;11.40;99.90
27779;DHT22;30234;48.090;11.464;2023-03-31T15:43:13;11.10;99.90
27779;DHT22;30234;48.090;11.464;2023-03-31T15:47:17;11.20;99.90
27779;DHT22;30234;48.090;11.464;2023-03-31T15:51:23;11.30;99.90
27779;DHT22;30234;48.090;11.464;2023-03-31T15:55:39;11.40;99.90
27779;DHT22;30234;48.090;11.464;2023-03-31T15:59:48;11.40;99.90
27779;DHT22;30234;48.090;11.464;2023-03-31T16:03:54;11.50;99.90
27779;DHT22;30234;48.090;11.464;2023-03-31T16:07:56;11.60;99.90
27779;DHT22;30234;48.090;11.464;2023-03-31T16:11:59;11.90;99.90
27779;DHT22;30234;48.090;11.464;2023-03-31T16:16:07;12.20;99.90
27779;DHT22;30234;48.090;11.464;2023-03-31T16:20:30;12.20;99.90
27779;DHT22;30234;48.090;11.464;2023-03-31T16:24:33;12.10;99.90
27779;DHT22;30234;48.090;11.464;2023-03-31T16:28:36;11.90;99.90
27779;DHT22;30234;48.090;11.464;2023-03-31T16:32:37;11.60;99.90
27779;DHT22;30234;48.090;11.464;2023-03-31T16:36:38;11.30;99.90
27779;DHT22;30234;48.090;11.464;2023-03-31T16:40:42;11.10;99.90
27779;DHT22;30234;48.090;11.464;2023-03-31T16:44:44;11.00;99.90
27779;DHT22;30234;48.090;11.464;2023-03-31T16:48:46;10.90;99.90
27779;DHT22;30234;48.090;11.464;2023-03-31T16:52:47;10.80;99.90
27779;DHT22;30234;48.090;11.464;2023-03-31T16:56:47;10.70;99.90
27779;DHT22;30234;48.090;11.464;2023-03-31T17:00:49;9.10;99.90
27779;DHT22;30234;48.090;11.464;2023-03-31T17:04:50;8.20;99.90
27779;DHT22;30234;48.090;11.464;2023-03-31T17:08:51;7.70;99.90
27779;DHT22;30234;48.090;11.464;2023-03-31T17:12:52;7.40;99.90
27779;DHT22;30234;48.090;11.464;2023-03-31T17:16:53;7.30;99.90
27779;DHT22;30234;48.090;11.464;2023-03-31T17:20:54;7.20;99.90
27779;DHT22;30234;48.090;11.464;2023-03-31T17:24:55;7.10;99.90
27779;DHT22;30234;48.090;11.464;2023-03-31T17:28:57;7.00;99.90
27779;DHT22;30234;48.090;11.464;2023-03-31T17:32:59;7.00;99.90
27779;DHT22;30234;48.090;11.464;2023-03-31T17:37:00;6.90;99.90
27779;DHT22;30234;48.090;11.464;2023-03-31T17:41:03;6.80;99.90
27779;DHT22;30234;48.090;11.464;2023-03-31T17:45:05;6.70;99.90
27779;DHT22;30234;48.090;11.464;2023-03-31T17:49:08;6.60;99.90
27779;DHT22;30234;48.090;11.464;2023-03-31T17:53:09;6.70;99.90
27779;DHT22;30234;48.090;11.464;2023-03-31T17:57:09;6.80;99.90
27779;DHT22;30234;48.090;11.464;2023-03-31T18:01:11;6.80;99.90
27779;DHT22;30234;48.090;11.464;2023-03-31T18:05:12;6.90;99.90
27779;DHT22;30234;48.090;11.464;2023-03-31T18:09:14;7.10;99.90
27779;DHT22;30234;48.090;11.464;2023-03-31T18:13:16;7.30;99.90
27779;DHT22;30234;48.090;11.464;2023-03-31T18:17:17;7.30;99.90
27779;DHT22;30234;48.090;11.464;2023-03-31T18:21:18;7.30;99.90
27779;DHT22;30234;48.090;11.464;2023-03-31T18:25:19;7.40;99.90
27779;DHT22;30234;48.090;11.464;2023-03-31T18:29:20;7.30;99.90
27779;DHT22;30234;48.090;11.464;2023-03-31T18:33:20;7.40;99.90
27779;DHT22;30234;48.090;11.464;2023-03-31T18:37:21;7.40;99.90
27779;DHT22;30234;48.090;11.464;2023-03-31T18:41:23;7.50;99.90
27779;DHT22;30234;48.090;11.464;2023-03-31T18:45:24;7.40;99.90
27779;DHT22;30234;48.090;11.464;2023-03-31T18:49:27;7.50;99.90
27779;DHT22;30234;48.090;11.464;2023-03-31T18:53:28;7.50;99.90
27779;DHT22;30234;48.090;11.464;2023-03-31T18:57:29;7.40;99.90
27779;DHT22;30234;48.090;11.464;2023-03-31T19:01:30;7.30;99.90
27779;DHT22;30234;48.090;11.464;2023-03-31T19:05:39;7.40;99.90
27779;DHT22;30234;48.090;11.464;2023-03-31T19:09:40;7.30;99.90
27779;DHT22;30234;48.090;11.464;2023-03-31T19:13:42;7.40;99.90
27779;DHT22;30234;48.090;11.464;2023-03-31T19:17:43;7.40;99.90
27779;DHT22;30234;48.090;11.464;2023-03-31T19:21:44;7.50;99.90
27779;DHT22;30234;48.090;11.464;2023-03-31T19:25:45;7.40;99.90
27779;DHT22;30234;48.090;11.464;2023-03-31T19:29:46;7.50;99.90
27779;DHT22;30234;48.090;11.464;2023-03-31T19:33:47;7.60;99.90
27779;DHT22;30234;48.090;11.464;2023-03-31T19:37:48;7.60;99.90
27779;DHT22;30234;48.090;11.464;2023-03-31T19:41:49;7.70;99.90
27779;DHT22;30234;48.090;11.464;2023-03-31T19:45:51;7.60;99.90
27779;DHT22;30234;48.090;11.464;2023-03-31T19:49:53;7.70;99.90
27779;DHT22;30234;48.090;11.464;2023-03-31T19:53:54;7.70;99.90
27779;DHT22;30234;48.090;11.464;2023-03-31T19:57:56;7.70;99.90
27779;DHT22;30234;48.090;11.464;2023-03-31T20:01:57;7.80;99.90
27779;DHT22;30234;48.090;11.464;2023-03-31T20:06:07;7.90;99.90
27779;DHT22;30234;48.090;11.464;2023-03-31T20:10:10;7.80;99.90
27779;DHT22;30234;48.090;11.464;2023-03-31T20:14:13;7.90;99.90
27779;DHT22;30234;48.090;11.464;2023-03-31T20:18:14;7.90;99.90
27779;DHT22;30234;48.090;11.464;2023-03-31T20:22:15;8.00;99.90
27779;DHT22;30234;48.090;11.464;2023-03-31T20:26:20;7.90;99.90
27779;DHT22;30234;48.090;11.464;2023-03-31T20:30:23;7.90;99.90
27779;DHT22;30234;48.090;11.464;2023-03-31T20:34:24;8.00;99.90
27779;DHT22;30234;48.090;11.464;2023-03-31T20:38:27;8.00;99.90
27779;DHT22;30234;48.090;11.464;2023-03-31T20:42:27;8.10;99.90
27779;DHT22;30234;48.090;11.464;2023-03-31T20:46:29;8.10;99.90
27779;DHT22;30234;48.090;11.464;2023-03-31T20:50:30;8.00;99.90
27779;DHT22;30234;48.090;11.464;2023-03-31T20:54:35;8.00;99.90
27779;DHT22;30234;48.090;11.464;2023-03-31T20:58:36;8.20;99.90
27779;DHT22;30234;48.090;11.464;2023-03-31T21:02:37;8.30;99.90
27779;DHT22;30234;48.090;11.464;2023-03-31T21:06:41;8.30;99.90
27779;DHT22;30234;48.090;11.464;2023-03-31T21:10:59;8.30;99.90
27779;DHT22;30234;48.090;11.464;2023-03-31T21:15:01;8.30;99.90
27779;DHT22;30234;48.090;11.464;2023-03-31T21:19:02;8.30;99.90
27779;DHT22;30234;48.090;11.464;2023-03-31T21:23:02;8.40;99.90
27779;DHT22;30234;48.090;11.464;2023-03-31T21:27:03;8.40;99.90
27779;DHT22;30234;48.090;11.464;2023-03-31T21:31:07;8.30;99.90
27779;DHT22;30234;48.090;11.464;2023-03-31T21:35:11;8.30;99.90
27779;DHT22;30234;48.090;11.464;2023-03-31T21:39:12;8.30;99.90
27779;DHT22;30234;48.090;11.464;2023-03-31T21:43:13;8.30;99.90
27779;DHT22;30234;48.090;11.464;2023-03-31T21:47:14;8.20;99.90
27779;DHT22;30234;48.090;11.464;2023-03-31T21:51:16;8.00;99.90
27779;DHT22;30234;48.090;11.464;2023-03-31T21:55:18;8.00;99.90
27779;DHT22;30234;48.090;11.464;2023-03-31T21:59:18;8.00;99.90
27779;DHT22;30234;48.090;11.464;2023-03-31T22:03:19;8.00;99.90
27779;DHT22;30234;48.090;11.464;2023-03-31T22:07:20;7.90;99.90
27779;DHT22;30234;48.090;11.464;2023-03-31T22:11:21;7.90;99.90
27779;DHT22;30234;48.090;11.464;2023-03-31T22:15:23;7.90;99.90
27779;DHT22;30234;48.090;11.464;2023-03-31T22:19:24;7.90;99.90
27779;DHT22;30234;48.090;11.464;2023-03-31T22:23:24;7.80;99.90
27779;DHT22;30234;48.090;11.464;2023-03-31T22:27:26;7.70;99.90
27779;DHT22;30234;48.090;11.464;2023-03-31T22:31:27;7.70;99.90
27779;DHT22;30234;48.090;11.464;2023-03-31T22:35:28;7.80;99.90
27779;DHT22;30234;48.090;11.464;2023-03-31T22:39:29;7.80;99.90
27779;DHT22;30234;48.090;11.464;2023-03-31T22:43:31;7.80;99.90
27779;DHT22;30234;48.090;11.464;2023-03-31T22:47:32;7.90;99.90
27779;DHT22;30234;48.090;11.464;2023-03-31T22:51:33;8.00;99.90
27779;DHT22;30234;48.090;11.464;2023-03-31T22:55:39;7.90;99.90
27779;DHT22;30234;48.090;11.464;2023-03-31T22:59:42;7.70;99.90
27779;DHT22;30234;48.090;11.464;2023-03-31T23:03:43;7.50;99.90
27779;DHT22;30234;48.090;11.464;2023-03-31T23:07:45;7.40;99.90
27779;DHT22;30234;48.090;11.464;2023-03-31T23:11:46;7.40;99.90
27779;DHT22;30234;48.090;11.464;2023-03-31T23:15:47;7.40;99.90
27779;DHT22;30234;48.090;11.464;2023-03-31T23:19:48;7.40;99.90
27779;DHT22;30234;48.090;11.464;2023-03-31T23:23:54;7.40;99.90
27779;DHT22;30234;48.090;11.464;2023-03-31T23:27:56;7.40;99.90
27779;DHT22;30234;48.090;11.464;2023-03-31T23:31:57;7.40;99.90
27779;DHT22;30234;48.090;11.464;2023-03-31T23:35:59;7.40;99.90
27779;DHT22;30234;48.090;11.464;2023-03-31T23:40:02;7.40;99.90
27779;DHT22;30234;48.090;11.464;2023-03-31T23:44:04;7.30;99.90
27779;DHT22;30234;48.090;11.464;2023-03-31T23:48:05;7.10;99.90
27779;DHT22;30234;48.090;11.464;2023-03-31T23:52:06;6.90;99.90
27779;DHT22;30234;48.090;11.464;2023-03-31T23:56:09;6.80;99.90
